createdAt,value
2022-11-03T00:01:53.089Z,91587.09
2022-11-03T00:04:19.986Z,91587.47
2022-11-03T00:06:47.095Z,91580.41
2022-11-03T00:09:14.042Z,91572.16
2022-11-03T00:11:40.859Z,91568.78
2022-11-03T00:14:07.204Z,91565.78
2022-11-03T00:16:33.484Z,91571.25
2022-11-03T00:18:59.747Z,91568.44
2022-11-03T00:21:26.010Z,91570.03
2022-11-03T00:23:52.280Z,91578.81
2022-11-03T00:26:20.752Z,91583.94
2022-11-03T00:28:47.876Z,91576.47
2022-11-03T00:31:32.576Z,91581.78
2022-11-03T00:33:59.030Z,91583.78
2022-11-03T00:36:26.089Z,91581.63
2022-11-03T00:38:52.476Z,91590.78
2022-11-03T00:41:20.578Z,91591.34
2022-11-03T00:43:46.849Z,91581.97
2022-11-03T00:46:13.197Z,91585.31
2022-11-03T00:48:39.525Z,91589.75
2022-11-03T00:51:05.806Z,91583.41
2022-11-03T00:53:32.551Z,91587.31
2022-11-03T00:55:58.825Z,91585.34
2022-11-03T00:58:25.098Z,91578.47
2022-11-03T01:00:51.451Z,91580.25
2022-11-03T01:03:17.766Z,91579.72
2022-11-03T01:06:02.917Z,91576.34
2022-11-03T01:08:33.069Z,91573.38
2022-11-03T01:11:43.678Z,91570.91
2022-11-03T01:14:10.497Z,91564.22
2022-11-03T01:16:36.769Z,91568.25
2022-11-03T01:19:03.047Z,91562.81
2022-11-03T01:21:29.416Z,91564.56
2022-11-03T01:23:55.741Z,91559.63
2022-11-03T01:26:22.014Z,91555.56
2022-11-03T01:28:48.321Z,91557.34
2022-11-03T01:31:18.519Z,91549.75
2022-11-03T01:33:47.488Z,91554.50
2022-11-03T01:36:13.952Z,91550.81
2022-11-03T01:38:40.245Z,91550.09
2022-11-03T01:41:07.095Z,91548.69
2022-11-03T01:43:33.381Z,91547.56
2022-11-03T01:46:05.634Z,91547.19
2022-11-03T01:48:31.909Z,91541.59
2022-11-03T01:50:58.204Z,91544.97
2022-11-03T01:53:24.488Z,91545.88
2022-11-03T01:55:50.843Z,91546.59
2022-11-03T01:58:18.287Z,91552.72
2022-11-03T02:00:45.269Z,91546.00
2022-11-03T02:03:11.620Z,91546.59
2022-11-03T02:05:37.905Z,91538.84
2022-11-03T02:08:05.672Z,91539.56
2022-11-03T02:10:31.985Z,91538.16
2022-11-03T02:12:58.271Z,91524.56
2022-11-03T02:15:24.705Z,91521.91
2022-11-03T02:17:51.236Z,91515.06
2022-11-03T02:20:18.102Z,91511.56
2022-11-03T02:22:44.347Z,91509.75
2022-11-03T02:25:16.889Z,91510.84
2022-11-03T02:27:43.170Z,91502.91
2022-11-03T02:30:09.784Z,91505.22
2022-11-03T02:32:44.472Z,91500.44
2022-11-03T02:35:13.835Z,91495.50
2022-11-03T02:37:41.177Z,91497.22
2022-11-03T02:40:08.655Z,91493.38
2022-11-03T02:42:35.492Z,91487.59
2022-11-03T02:45:02.552Z,91482.44
2022-11-03T02:47:28.920Z,91476.13
2022-11-03T02:52:41.660Z,91480.34
2022-11-03T02:55:12.439Z,91479.13
2022-11-03T02:57:39.699Z,91477.00
2022-11-03T03:00:06.383Z,91476.13
2022-11-03T03:02:34.348Z,91469.25
2022-11-03T03:05:01.635Z,91472.78
2022-11-03T03:07:29.437Z,91461.78
2022-11-03T03:10:02.805Z,91465.81
2022-11-03T03:12:29.093Z,91454.78
2022-11-03T03:14:55.357Z,91466.91
2022-11-03T03:17:25.862Z,91455.81
2022-11-03T03:20:02.670Z,91453.50
2022-11-03T03:22:30.617Z,91444.47
2022-11-03T03:25:01.273Z,91454.50
2022-11-03T03:27:27.963Z,91443.84
2022-11-03T03:30:01.679Z,91441.06
2022-11-03T03:32:28.181Z,91444.03
2022-11-03T03:34:54.499Z,91444.56
2022-11-03T03:37:21.211Z,91447.75
2022-11-03T03:39:48.439Z,91436.63
2022-11-03T03:42:14.710Z,91436.47
2022-11-03T03:44:41.355Z,91436.09
2022-11-03T03:47:10.806Z,91429.22
2022-11-03T03:49:37.066Z,91431.00
2022-11-03T03:52:03.883Z,91423.97
2022-11-03T03:54:30.168Z,91422.38
2022-11-03T03:56:57.880Z,91423.56
2022-11-03T03:59:24.207Z,91428.19
2022-11-03T04:01:50.719Z,91426.63
2022-11-03T04:04:17.102Z,91427.00
2022-11-03T04:06:43.380Z,91426.94
2022-11-03T04:09:09.722Z,91424.22
2022-11-03T04:11:54.804Z,91418.63
2022-11-03T04:14:39.657Z,91428.88
2022-11-03T04:17:26.606Z,91429.28
2022-11-03T04:20:11.529Z,91427.66
2022-11-03T04:22:37.845Z,91427.97
2022-11-03T04:25:04.229Z,91430.56
2022-11-03T04:27:30.498Z,91429.69
2022-11-03T04:30:00.173Z,91424.59
2022-11-03T04:32:26.443Z,91418.41
2022-11-03T04:34:52.751Z,91415.56
2022-11-03T04:37:19.048Z,91413.00
2022-11-03T04:42:19.793Z,91407.41
2022-11-03T04:44:49.252Z,91401.91
2022-11-03T04:47:15.914Z,91408.97
2022-11-03T04:49:42.570Z,91402.28
2022-11-03T04:52:16.449Z,91399.28
2022-11-03T04:54:42.784Z,91397.53
2022-11-03T04:57:10.504Z,91394.00
2022-11-03T04:59:36.837Z,91393.50
2022-11-03T05:02:03.673Z,91388.78
2022-11-03T05:04:30.074Z,91385.81
2022-11-03T05:06:56.337Z,91382.41
2022-11-03T05:09:29.339Z,91378.13
2022-11-03T05:11:55.619Z,91375.81
2022-11-03T05:14:21.917Z,91381.81
2022-11-03T05:16:48.460Z,91378.13
2022-11-03T05:19:15.649Z,91381.88
2022-11-03T05:21:41.974Z,91371.50
2022-11-03T05:24:11.780Z,91365.63
2022-11-03T05:26:38.076Z,91382.19
2022-11-03T05:29:09.453Z,91373.56
2022-11-03T05:31:35.736Z,91370.50
2022-11-03T05:34:02.689Z,91364.06
2022-11-03T05:36:30.291Z,91363.88
2022-11-03T05:38:58.625Z,91361.22
2022-11-03T05:41:25.285Z,91364.38
2022-11-03T05:43:59.159Z,91365.34
2022-11-03T05:46:29.406Z,91360.53
2022-11-03T05:48:55.675Z,91367.59
2022-11-03T05:51:22.812Z,91365.59
2022-11-03T05:53:50.490Z,91369.00
2022-11-03T05:56:18.248Z,91360.88
2022-11-03T05:58:44.604Z,91363.91
2022-11-03T06:01:26.483Z,91357.72
2022-11-03T06:03:52.967Z,91357.72
2022-11-03T06:06:21.007Z,91356.09
2022-11-03T06:08:47.295Z,91348.56
2022-11-03T06:11:16.182Z,91345.06
2022-11-03T06:13:42.472Z,91337.16
2022-11-03T06:16:11.833Z,91341.25
2022-11-03T06:18:38.337Z,91337.88
2022-11-03T06:21:08.362Z,91336.31
2022-11-03T06:23:34.850Z,91338.97
2022-11-03T06:26:02.489Z,91333.75
2022-11-03T06:28:37.867Z,91325.31
2022-11-03T06:31:14.379Z,91324.19
2022-11-03T06:33:42.244Z,91329.53
2022-11-03T06:36:13.339Z,91322.72
2022-11-03T06:38:39.664Z,91323.19
2022-11-03T06:41:07.537Z,91314.38
2022-11-03T06:43:40.642Z,91314.13
2022-11-03T06:46:20.349Z,91313.69
2022-11-03T06:48:46.630Z,91308.72
2022-11-03T06:51:20.023Z,91310.84
2022-11-03T06:53:46.373Z,91300.69
2022-11-03T06:56:13.072Z,91303.28
2022-11-03T06:58:39.342Z,91304.50
2022-11-03T07:01:15.964Z,91310.34
2022-11-03T07:03:42.334Z,91308.31
2022-11-03T07:06:13.822Z,91301.91
2022-11-03T07:08:43.639Z,91301.44
2022-11-03T07:11:17.235Z,91288.31
2022-11-03T07:13:43.554Z,91288.78
2022-11-03T07:16:28.344Z,91285.28
2022-11-03T07:18:54.637Z,91276.63
2022-11-03T07:21:37.959Z,91280.94
2022-11-03T07:24:12.815Z,91278.41
2022-11-03T07:26:39.086Z,91280.13
2022-11-03T07:29:05.355Z,91282.94
2022-11-03T07:31:31.663Z,91289.63
2022-11-03T07:33:58.588Z,91286.28
2022-11-03T07:36:25.861Z,91283.47
2022-11-03T07:38:52.653Z,91273.81
2022-11-03T07:41:22.776Z,91274.78
2022-11-03T07:43:58.669Z,91278.28
2022-11-03T07:46:25.155Z,91271.06
2022-11-03T07:48:57.920Z,91269.16
2022-11-03T07:51:29.637Z,91268.56
2022-11-03T07:53:58.909Z,91275.09
2022-11-03T07:56:25.939Z,91277.47
2022-11-03T07:58:54.087Z,91269.47
2022-11-03T08:01:24.846Z,91267.03
2022-11-03T08:03:51.369Z,91256.88
2022-11-03T08:06:19.902Z,91248.38
2022-11-03T08:08:46.505Z,91250.75
2022-11-03T08:13:43.979Z,91248.94
2022-11-03T08:16:10.259Z,91249.53
2022-11-03T08:18:37.055Z,91246.59
2022-11-03T08:21:03.323Z,91240.69
2022-11-03T08:23:29.997Z,91244.38
2022-11-03T08:25:56.802Z,91242.00
2022-11-03T08:28:23.208Z,91234.56
2022-11-03T08:30:49.622Z,91241.75
2022-11-03T08:33:15.971Z,91237.59
2022-11-03T08:35:42.409Z,91232.91
2022-11-03T08:38:09.137Z,91222.16
2022-11-03T08:40:35.629Z,91223.47
2022-11-03T08:43:03.018Z,91223.59
2022-11-03T08:45:29.926Z,91224.19
2022-11-03T08:47:56.340Z,91219.94
2022-11-03T08:50:22.677Z,91219.09
2022-11-03T08:52:49.461Z,91231.44
2022-11-03T08:55:15.739Z,91229.59
2022-11-03T08:57:42.016Z,91222.34
2022-11-03T09:00:08.562Z,91233.41
2022-11-03T09:02:34.876Z,91224.59
2022-11-03T09:05:01.194Z,91208.53
2022-11-03T09:12:43.023Z,91207.84
2022-11-03T09:15:09.531Z,91201.00
2022-11-03T09:17:35.822Z,91204.06
2022-11-03T09:20:02.143Z,91193.53
2022-11-03T09:22:28.494Z,91189.91
2022-11-03T09:24:54.803Z,91186.44
2022-11-03T09:27:21.137Z,91198.06
2022-11-03T09:30:11.768Z,91186.47
2022-11-03T09:32:34.259Z,91181.44
2022-11-03T09:35:00.532Z,91170.38
2022-11-03T09:37:27.472Z,91168.84
2022-11-03T09:39:53.842Z,91171.34
2022-11-03T09:42:20.135Z,91173.16
2022-11-03T09:44:47.666Z,91159.41
2022-11-03T09:47:16.954Z,91160.97
2022-11-03T09:49:43.360Z,91152.69
2022-11-03T09:52:09.634Z,91161.50
2022-11-03T09:54:35.912Z,91162.88
2022-11-03T09:57:05.550Z,91155.34
2022-11-03T09:59:31.896Z,91165.69
2022-11-03T10:01:58.239Z,91175.38
2022-11-03T10:04:27.908Z,91171.44
2022-11-03T10:06:54.846Z,91166.09
2022-11-03T10:09:23.080Z,91160.78
2022-11-03T10:11:49.599Z,91150.97
2022-11-03T10:14:16.099Z,91153.44
2022-11-03T10:16:42.673Z,91145.97
2022-11-03T10:19:18.198Z,91128.00
2022-11-03T10:21:44.451Z,91130.72
2022-11-03T10:24:11.404Z,91119.91
2022-11-03T10:26:44.933Z,91127.16
2022-11-03T10:31:54.381Z,91106.84
2022-11-03T10:34:37.350Z,91104.13
2022-11-03T10:37:22.448Z,91097.94
2022-11-03T10:39:49.383Z,91105.25
2022-11-03T10:42:16.534Z,91104.22
2022-11-03T10:44:42.802Z,91095.75
2022-11-03T10:47:09.723Z,91107.56
2022-11-03T10:49:43.678Z,91089.97
2022-11-03T10:52:20.891Z,91092.00
2022-11-03T10:54:47.391Z,91091.81
2022-11-03T10:57:13.661Z,91089.63
2022-11-03T10:59:40.027Z,91091.34
2022-11-03T11:02:14.029Z,91093.63
2022-11-03T11:04:40.389Z,91086.94
2022-11-03T11:07:27.078Z,91093.13
2022-11-03T11:09:53.852Z,91095.28
2022-11-03T11:12:23.687Z,91089.59
2022-11-03T11:14:56.926Z,91093.69
2022-11-03T11:17:39.125Z,91092.75
2022-11-03T11:20:18.177Z,91087.66
2022-11-03T11:22:44.943Z,91072.34
2022-11-03T11:25:11.205Z,91067.25
2022-11-03T11:27:43.608Z,91059.38
2022-11-03T11:30:19.077Z,91059.25
2022-11-03T11:32:45.315Z,91051.16
2022-11-03T11:35:12.301Z,91045.72
2022-11-03T11:37:38.640Z,91040.75
2022-11-03T11:40:11.936Z,91025.88
2022-11-03T11:42:58.480Z,91014.06
2022-11-03T11:45:43.503Z,91013.16
2022-11-03T11:48:18.852Z,91011.09
2022-11-03T11:50:45.723Z,90991.50
2022-11-03T11:53:18.528Z,90989.31
2022-11-03T11:55:51.990Z,90982.47
2022-11-03T11:58:19.395Z,90971.09
2022-11-03T12:00:57.728Z,90963.22
2022-11-03T12:03:25.802Z,90953.47
2022-11-03T12:05:52.117Z,90943.75
2022-11-03T12:08:18.864Z,90953.03
2022-11-03T12:10:54.559Z,90945.50
2022-11-03T12:13:35.933Z,90936.22
2022-11-03T12:16:02.210Z,90927.41
2022-11-03T12:18:36.551Z,90920.00
2022-11-03T12:21:14.554Z,90913.09
2022-11-03T12:23:44.365Z,90914.38
2022-11-03T12:26:36.930Z,90916.59
2022-11-03T12:29:05.188Z,90911.38
2022-11-03T12:31:34.374Z,90892.00
2022-11-03T12:34:03.229Z,90873.19
2022-11-03T12:36:29.499Z,90868.50
2022-11-03T12:38:55.796Z,90860.38
2022-11-03T12:41:22.124Z,90864.09
2022-11-03T12:43:48.769Z,90876.38
2022-11-03T12:46:15.896Z,90859.25
2022-11-03T12:48:43.939Z,90853.47
2022-11-03T12:51:23.408Z,90843.03
2022-11-03T12:53:49.932Z,90829.84
2022-11-03T12:56:16.299Z,90833.53
2022-11-03T12:58:42.575Z,90837.94
2022-11-03T13:01:08.946Z,90839.09
2022-11-03T13:03:35.371Z,90836.06
2022-11-03T13:06:04.258Z,90834.44
2022-11-03T13:08:33.496Z,90832.44
2022-11-03T13:10:59.771Z,90837.44
2022-11-03T13:13:26.847Z,90828.13
2022-11-03T13:15:53.220Z,90830.47
2022-11-03T13:18:20.275Z,90835.66
2022-11-03T13:20:46.598Z,90825.78
2022-11-03T13:23:13.700Z,90816.19
2022-11-03T13:25:41.511Z,90798.63
2022-11-03T13:28:07.847Z,90811.28
2022-11-03T13:30:34.120Z,90810.47
2022-11-03T13:33:00.397Z,90802.75
2022-11-03T13:35:26.671Z,90794.75
2022-11-03T13:37:52.947Z,90793.56
2022-11-03T13:40:42.770Z,90791.22
2022-11-03T13:43:05.906Z,90781.41
2022-11-03T13:45:32.532Z,90772.59
2022-11-03T13:50:51.778Z,90777.03
2022-11-03T13:56:07.825Z,90745.28
2022-11-03T14:01:23.155Z,90729.94
2022-11-03T14:06:36.035Z,90703.63
2022-11-03T14:09:02.696Z,90713.63
2022-11-03T14:11:47.421Z,90712.13
2022-11-03T14:14:13.709Z,90694.00
2022-11-03T14:16:40.084Z,90693.31
2022-11-03T14:19:06.384Z,90680.72
2022-11-03T14:21:32.932Z,90680.78
2022-11-03T14:23:59.234Z,90690.69
2022-11-03T14:26:41.737Z,90680.53
2022-11-03T14:29:08.378Z,90662.22
2022-11-03T14:31:34.763Z,90655.63
2022-11-03T14:34:01.640Z,90656.47
2022-11-03T14:36:27.914Z,90649.44
2022-11-03T14:38:54.244Z,90641.66
2022-11-03T14:41:39.329Z,90632.53
2022-11-03T14:44:06.135Z,90630.06
2022-11-03T14:46:32.465Z,90632.53
2022-11-03T14:48:58.778Z,90631.78
2022-11-03T14:51:25.128Z,90634.44
2022-11-03T14:53:51.499Z,90631.91
2022-11-03T14:56:17.780Z,90640.69
2022-11-03T14:58:44.051Z,90638.84
2022-11-03T15:01:10.426Z,90634.75
2022-11-03T15:03:36.814Z,90636.63
2022-11-03T15:06:03.094Z,90633.50
2022-11-03T15:08:30.883Z,90628.22
2022-11-03T15:10:57.139Z,90630.41
2022-11-03T15:13:23.427Z,90632.53
2022-11-03T15:15:49.696Z,90631.25
2022-11-03T15:18:16.439Z,90631.66
2022-11-03T15:20:42.747Z,90634.13
2022-11-03T15:25:55.683Z,90635.56
2022-11-03T15:28:22.051Z,90637.84
2022-11-03T15:30:49.166Z,90638.56
2022-11-03T15:33:15.987Z,90643.06
2022-11-03T15:35:42.344Z,90648.28
2022-11-03T15:38:09.029Z,90637.59
2022-11-03T15:40:35.480Z,90642.25
2022-11-03T15:43:03.111Z,90645.19
2022-11-03T15:45:29.600Z,90638.00
2022-11-03T15:47:58.365Z,90638.38
2022-11-03T15:50:25.873Z,90635.25
2022-11-03T15:52:52.513Z,90629.38
2022-11-03T15:55:19.068Z,90640.59
2022-11-03T15:57:45.350Z,90629.59
2022-11-03T16:00:11.933Z,90634.09
2022-11-03T16:02:41.800Z,90630.16
2022-11-03T16:05:09.004Z,90632.47
2022-11-03T16:07:35.275Z,90642.34
2022-11-03T16:10:01.633Z,90643.72
2022-11-03T16:12:28.003Z,90640.69
2022-11-03T16:14:54.294Z,90647.06
2022-11-03T16:17:22.751Z,90652.09
2022-11-03T16:19:49.194Z,90646.53
2022-11-03T16:22:15.548Z,90644.09
2022-11-03T16:24:44.055Z,90651.78
2022-11-03T16:27:10.397Z,90666.50
2022-11-03T16:29:36.664Z,90655.63
2022-11-03T16:32:02.927Z,90666.63
2022-11-03T16:34:29.203Z,90666.13
2022-11-03T16:36:56.209Z,90670.59
2022-11-03T16:39:22.647Z,90669.16
2022-11-03T16:41:48.962Z,90670.66
2022-11-03T16:44:15.257Z,90668.31
2022-11-03T16:46:41.521Z,90663.28
2022-11-03T16:49:07.782Z,90666.63
2022-11-03T16:51:34.066Z,90656.88
2022-11-03T16:54:00.441Z,90659.75
2022-11-03T16:56:26.722Z,90660.06
2022-11-03T16:58:52.999Z,90656.03
2022-11-03T17:01:19.352Z,90656.25
2022-11-03T17:03:45.703Z,90658.69
2022-11-03T17:06:12.042Z,90644.25
2022-11-03T17:08:52.325Z,90646.09
2022-11-03T17:11:37.930Z,90642.63
2022-11-03T17:14:04.800Z,90635.63
2022-11-03T17:16:31.093Z,90624.75
2022-11-03T17:18:58.357Z,90613.72
2022-11-03T17:21:27.627Z,90603.91
2022-11-03T17:23:53.879Z,90607.03
2022-11-03T17:26:21.214Z,90604.81
2022-11-03T17:28:47.554Z,90600.88
2022-11-03T17:31:13.838Z,90596.03
2022-11-03T17:33:40.140Z,90599.63
2022-11-03T17:36:06.526Z,90593.22
2022-11-03T17:38:32.802Z,90593.69
2022-11-03T17:40:59.167Z,90593.44
2022-11-03T17:43:27.025Z,90597.38
2022-11-03T17:45:53.623Z,90601.56
2022-11-03T17:48:20.189Z,90597.16
2022-11-03T17:50:47.526Z,90600.56
2022-11-03T17:53:21.225Z,90583.63
2022-11-03T17:56:02.908Z,90581.88
2022-11-03T17:58:34.101Z,90575.00
2022-11-03T18:01:00.536Z,90570.19
2022-11-03T18:03:27.375Z,90581.97
2022-11-03T18:05:53.961Z,90576.09
2022-11-03T18:08:21.044Z,90560.78
2022-11-03T18:10:48.103Z,90564.34
2022-11-03T18:13:21.246Z,90574.38
2022-11-03T18:15:49.204Z,90577.22
2022-11-03T18:18:21.841Z,90573.66
2022-11-03T18:20:53.209Z,90580.69
2022-11-03T18:23:23.970Z,90571.91
2022-11-03T18:25:50.405Z,90565.47
2022-11-03T18:28:16.733Z,90562.41
2022-11-03T18:30:43.720Z,90552.22
2022-11-03T18:33:23.520Z,90549.34
2022-11-03T18:35:49.899Z,90541.16
2022-11-03T18:38:16.177Z,90549.47
2022-11-03T18:40:42.929Z,90556.47
2022-11-03T18:43:12.788Z,90553.16
2022-11-03T18:45:39.110Z,90538.56
2022-11-03T18:48:05.541Z,90539.03
2022-11-03T18:50:31.872Z,90534.31
2022-11-03T18:52:58.154Z,90526.91
2022-11-03T18:55:24.442Z,90527.84
2022-11-03T18:57:51.278Z,90516.44
2022-11-03T19:00:18.900Z,90513.44
2022-11-03T19:02:45.270Z,90521.34
2022-11-03T19:05:14.830Z,90512.09
2022-11-03T19:07:41.413Z,90498.13
2022-11-03T19:10:08.233Z,90493.69
2022-11-03T19:12:38.842Z,90486.19
2022-11-03T19:15:06.022Z,90485.97
2022-11-03T19:17:32.821Z,90482.03
2022-11-03T19:19:59.091Z,90470.47
2022-11-03T19:22:26.198Z,90483.75
2022-11-03T19:24:52.473Z,90468.06
2022-11-03T19:27:25.736Z,90464.34
2022-11-03T19:29:52.068Z,90457.22
2022-11-03T19:32:25.040Z,90452.34
2022-11-03T19:34:53.765Z,90453.69
2022-11-03T19:37:20.043Z,90448.19
2022-11-03T19:39:47.254Z,90456.25
2022-11-03T19:42:29.442Z,90452.09
2022-11-03T19:44:56.308Z,90449.94
2022-11-03T19:47:23.708Z,90437.44
2022-11-03T19:49:51.334Z,90441.13
2022-11-03T19:52:17.613Z,90442.75
2022-11-03T19:54:45.664Z,90455.66
2022-11-03T19:57:12.127Z,90441.84
2022-11-03T19:59:38.474Z,90450.13
2022-11-03T20:02:04.800Z,90436.50
2022-11-03T20:04:31.185Z,90430.75
2022-11-03T20:06:57.459Z,90433.31
2022-11-03T20:09:24.753Z,90434.72
2022-11-03T20:11:51.482Z,90421.09
2022-11-03T20:14:19.598Z,90427.31
2022-11-03T20:16:45.942Z,90431.34
2022-11-03T20:19:12.309Z,90427.44
2022-11-03T20:21:39.004Z,90426.41
2022-11-03T20:24:05.378Z,90429.41
2022-11-03T20:26:31.640Z,90428.47
2022-11-03T20:28:58.031Z,90425.00
2022-11-03T20:31:24.298Z,90427.88
2022-11-03T20:33:50.810Z,90430.75
2022-11-03T20:36:18.010Z,90433.50
2022-11-03T20:38:46.102Z,90430.97
2022-11-03T20:41:15.440Z,90432.84
2022-11-03T20:43:42.572Z,90434.13
2022-11-03T20:46:14.991Z,90448.03
2022-11-03T20:48:41.258Z,90456.00
2022-11-03T20:51:07.538Z,90454.47
2022-11-03T20:53:34.356Z,90458.09
2022-11-03T20:56:00.634Z,90469.00
2022-11-03T20:58:26.992Z,90475.19
2022-11-03T21:00:53.293Z,90476.28
2022-11-03T21:03:53.549Z,90486.88
2022-11-03T21:06:14.729Z,90491.25
2022-11-03T21:08:41.031Z,90491.03
2022-11-03T21:11:23.139Z,90492.84
2022-11-03T21:13:53.227Z,90496.84
2022-11-03T21:16:38.059Z,90499.13
2022-11-03T21:19:41.536Z,90507.88
2022-11-03T21:22:30.933Z,90517.09
2022-11-03T21:25:00.933Z,90528.22
2022-11-03T21:27:27.228Z,90541.09
2022-11-03T21:29:59.344Z,90547.34
2022-11-03T21:32:26.205Z,90555.34
2022-11-03T21:34:52.507Z,90559.69
2022-11-03T21:37:18.797Z,90576.41
2022-11-03T21:39:45.165Z,90586.66
2022-11-03T21:42:30.808Z,90584.81
2022-11-03T21:44:57.254Z,90592.47
2022-11-03T21:47:23.514Z,90589.28
2022-11-03T21:49:49.919Z,90585.38
2022-11-03T21:52:17.252Z,90587.34
2022-11-03T21:54:43.712Z,90576.47
2022-11-03T21:57:10.732Z,90577.16
2022-11-03T21:59:37.022Z,90573.19
2022-11-03T22:02:03.614Z,90570.19
2022-11-03T22:04:30.073Z,90566.06
2022-11-03T22:06:56.749Z,90555.25
2022-11-03T22:09:23.577Z,90565.22
2022-11-03T22:11:50.039Z,90562.03
2022-11-03T22:14:16.358Z,90562.44
2022-11-03T22:16:44.186Z,90562.38
2022-11-03T22:19:32.647Z,90561.47
2022-11-03T22:22:17.868Z,90545.25
2022-11-03T22:25:02.822Z,90539.13
2022-11-03T22:27:29.604Z,90536.31
2022-11-03T22:30:14.527Z,90538.75
2022-11-03T22:32:40.809Z,90542.66
2022-11-03T22:35:26.161Z,90547.69
2022-11-03T22:38:11.821Z,90544.59
2022-11-03T22:40:57.001Z,90543.91
2022-11-03T22:43:42.004Z,90551.13
2022-11-03T22:46:08.660Z,90556.06
2022-11-03T22:48:34.992Z,90571.53
2022-11-03T22:51:02.237Z,90573.81
2022-11-03T22:53:47.809Z,90585.88
2022-11-03T22:56:14.203Z,90593.38
2022-11-03T22:58:40.549Z,90590.50
2022-11-03T23:01:08.164Z,90584.25
2022-11-03T23:03:34.998Z,90570.22
2022-11-03T23:06:02.076Z,90578.09
2022-11-03T23:08:29.339Z,90588.25
2022-11-03T23:10:55.619Z,90580.09
2022-11-03T23:13:21.994Z,90582.88
2022-11-03T23:15:48.322Z,90585.28
2022-11-03T23:18:33.384Z,90571.06
2022-11-03T23:21:08.474Z,90564.00
2022-11-03T23:23:53.519Z,90567.75
2022-11-03T23:26:19.919Z,90562.41
2022-11-03T23:28:46.227Z,90569.38
2022-11-03T23:31:12.757Z,90575.13
2022-11-03T23:33:39.184Z,90581.63
2022-11-03T23:36:06.117Z,90585.13
2022-11-03T23:38:33.213Z,90596.47
2022-11-03T23:41:18.374Z,90594.00
2022-11-03T23:43:44.776Z,90596.97
2022-11-03T23:46:33.368Z,90595.00
2022-11-03T23:48:59.689Z,90605.88
2022-11-03T23:51:26.810Z,90605.31
2022-11-03T23:53:53.372Z,90605.56
2022-11-03T23:56:39.087Z,90599.56
2022-11-03T23:59:05.579Z,90592.31
